Earlmount, Washington
Current Conditions -  °F | °C
As of 1:53 AM on Saturday 25 Oct 2014 (Local Time) from KBFI Reporting Station
Overcast Overcast  
Wind Chill: 54°   Ceiling: 10000
Heat Index: 54°   Visibility: 10mi
Dew Point: 49°   Wind: 7mph
Humidity: 83%   Direction: 300°WNW
Pressure: 29.66"   Gusts: NA
Location:  47.6833°N, 122.123°W
Report Text: KBFI 250853Z 30006KT 10SM OVC100 12/09 A2966 RMK AO2 SLP044 60001 T01220094 56044
Loading
Personal Weather Stations






























Interactive Weather Map
Tropical Storm Tracking
New forecast layout! Learn more

10-Day Weather Forecast

Advertisements
Track Severe Weather on mobile